Aérodrome :







RETROUVEZ-NOUS SUR...

 
LOGIN :

S'inscrire | Disclaimer

   EN    FR    IT 

 









Légende :    VFR   VFR Marginal   IFR   IFR Intensif   IFR Très Intensif
Visi : 
Plafond : 
>= 8 km
>= 3000ft
5 à 8 km
1000 à 3000 ft
1500m à 5 km
500 à 1000 ft
800 à 1500m
200 à 500 ft
< 800m
< 200 ft
Symboles :   Orages  Brouillard  Fortes neiges  Fortes précipitations  Vent > 20 kt






- Altitude de l'aérodrome : 6 ft
- Code IATA : AEY


BIAR - Akureyri

DERNIER METAR :
  • 171100Z 32013KT 7000 -SN FEW009 BKN017 01/M01 Q0977 R01/790095 RMK WIND VADLAHEIDI //////KT

METARs EXPIRÉS :
  • 171000Z 33017KT 5000 -SN SCT008 BKN012 OVC019 01/M01 Q0976 R01/790095 RMK WIND VADLAHEIDI //////KT
  • 170900Z 30013KT 7000 -RA FEW005 BKN013 OVC020 01/M00 Q0975 R01/790095 RMK WIND VADLAHEIDI //////KT

TAF TAF BIAR
Valide du 17 à 12h jusqu'au 18 à 12h UTC


171007Z 1712/1812 36017KT 9999 -SN SCT018 BKN035 TX01/1712Z TNM02/1809Z
TEMPO 1712/1809 2000 SHSN BKN006
BECMG 1801/1803 35007KT



MET'MAP, la Météo Aéronautique d'un coup d'oeil ! - Copyright ORBIFLY Décembre 2007 - Disclaimer

ORBIFLY MET'MAP TEAM :

Programmation & Développement : Alexandra Zaïnal
Sur une idée originale de : Baudouin d'Aumeries
Assistance à la programmation : Marc-Olivier Méhu
Soutien technique & logistique : Manuel Goepfert

Contact : metmap@orbifly.com




SOURCES & CREDITS :

   NOAA